sensor_id;sensor_type;location;lat;lon;timestamp;pressure;altitude;pressure_sealevel;temperature;humidity
14902;BME280;7542;49.078;9.194;2023-06-14T00:00:34;98111.50;;;31.79;20.35
14902;BME280;7542;49.078;9.194;2023-06-14T00:01:42;98115.66;;;31.77;20.34
14902;BME280;7542;49.078;9.194;2023-06-14T00:02:48;98113.88;;;31.72;20.43
14902;BME280;7542;49.078;9.194;2023-06-14T00:03:50;98115.63;;;31.68;20.62
14902;BME280;7542;49.078;9.194;2023-06-14T00:04:52;98109.25;;;31.64;20.25
14902;BME280;7542;49.078;9.194;2023-06-14T00:05:54;98109.56;;;31.62;20.13
14902;BME280;7542;49.078;9.194;2023-06-14T00:06:56;98114.03;;;31.58;20.68
14902;BME280;7542;49.078;9.194;2023-06-14T00:07:58;98117.06;;;31.57;20.60
14902;BME280;7542;49.078;9.194;2023-06-14T00:09:02;98109.56;;;31.54;20.32
14902;BME280;7542;49.078;9.194;2023-06-14T00:10:05;98113.72;;;31.51;20.25
14902;BME280;7542;49.078;9.194;2023-06-14T00:11:07;98112.44;;;31.49;20.43
14902;BME280;7542;49.078;9.194;2023-06-14T00:12:09;98115.78;;;31.45;20.57
14902;BME280;7542;49.078;9.194;2023-06-14T00:13:11;98109.88;;;31.43;20.27
14902;BME280;7542;49.078;9.194;2023-06-14T00:14:13;98120.25;;;31.41;20.60
14902;BME280;7542;49.078;9.194;2023-06-14T00:15:15;98121.69;;;31.39;20.83
14902;BME280;7542;49.078;9.194;2023-06-14T00:16:17;98118.78;;;31.35;20.53
14902;BME280;7542;49.078;9.194;2023-06-14T00:17:21;98110.50;;;31.32;20.37
14902;BME280;7542;49.078;9.194;2023-06-14T00:18:23;98120.06;;;31.29;20.49
14902;BME280;7542;49.078;9.194;2023-06-14T00:19:26;98115.28;;;31.26;20.60
14902;BME280;7542;49.078;9.194;2023-06-14T00:20:30;98122.13;;;31.24;20.51
14902;BME280;7542;49.078;9.194;2023-06-14T00:21:33;98118.13;;;31.21;20.77
14902;BME280;7542;49.078;9.194;2023-06-14T00:22:35;98114.44;;;31.17;21.04
14902;BME280;7542;49.078;9.194;2023-06-14T00:23:38;98116.66;;;31.15;20.69
14902;BME280;7542;49.078;9.194;2023-06-14T00:24:40;98115.38;;;31.12;20.76
14902;BME280;7542;49.078;9.194;2023-06-14T00:25:43;98119.53;;;31.10;21.35
14902;BME280;7542;49.078;9.194;2023-06-14T00:26:45;98113.63;;;31.08;21.47
14902;BME280;7542;49.078;9.194;2023-06-14T00:27:47;98114.25;;;31.05;21.30
14902;BME280;7542;49.078;9.194;2023-06-14T00:28:49;98121.88;;;31.03;21.44
14902;BME280;7542;49.078;9.194;2023-06-14T00:29:51;98122.53;;;31.00;21.60
14902;BME280;7542;49.078;9.194;2023-06-14T00:30:53;98114.72;;;30.98;21.52
14902;BME280;7542;49.078;9.194;2023-06-14T00:31:55;98111.06;;;30.94;21.34
14902;BME280;7542;49.078;9.194;2023-06-14T00:32:57;98117.56;;;30.93;21.74
14902;BME280;7542;49.078;9.194;2023-06-14T00:33:59;98112.47;;;30.92;21.34
14902;BME280;7542;49.078;9.194;2023-06-14T00:35:02;98106.56;;;30.90;21.59
14902;BME280;7542;49.078;9.194;2023-06-14T00:36:04;98121.22;;;30.88;21.04
14902;BME280;7542;49.078;9.194;2023-06-14T00:37:06;98109.91;;;30.86;21.37
14902;BME280;7542;49.078;9.194;2023-06-14T00:38:08;98105.13;;;30.83;21.30
14902;BME280;7542;49.078;9.194;2023-06-14T00:39:10;98109.75;;;30.83;21.57
14902;BME280;7542;49.078;9.194;2023-06-14T00:40:13;98106.84;;;30.79;21.82
14902;BME280;7542;49.078;9.194;2023-06-14T00:41:16;98107.97;;;30.78;21.62
14902;BME280;7542;49.078;9.194;2023-06-14T00:42:26;98099.19;;;30.81;21.60
14902;BME280;7542;49.078;9.194;2023-06-14T00:43:28;98107.16;;;30.78;21.56
14902;BME280;7542;49.078;9.194;2023-06-14T00:44:30;98105.09;;;30.75;21.64
14902;BME280;7542;49.078;9.194;2023-06-14T00:45:32;98103.81;;;30.72;21.92
14902;BME280;7542;49.078;9.194;2023-06-14T00:46:37;98101.41;;;30.71;21.98
14902;BME280;7542;49.078;9.194;2023-06-14T00:47:42;98104.91;;;30.71;21.68
14902;BME280;7542;49.078;9.194;2023-06-14T00:48:45;98100.91;;;30.69;22.14
14902;BME280;7542;49.078;9.194;2023-06-14T00:49:49;98095.03;;;30.67;21.95
14902;BME280;7542;49.078;9.194;2023-06-14T00:50:53;98106.97;;;30.66;21.51
14902;BME280;7542;49.078;9.194;2023-06-14T00:51:55;98107.28;;;30.64;21.68
14902;BME280;7542;49.078;9.194;2023-06-14T00:52:58;98107.28;;;30.64;21.79
14902;BME280;7542;49.078;9.194;2023-06-14T00:54:00;98107.88;;;30.61;21.61
14902;BME280;7542;49.078;9.194;2023-06-14T00:55:02;98110.88;;;30.59;22.12
14902;BME280;7542;49.078;9.194;2023-06-14T00:56:04;98102.28;;;30.57;21.51
14902;BME280;7542;49.078;9.194;2023-06-14T00:57:07;98105.31;;;30.56;21.82
14902;BME280;7542;49.078;9.194;2023-06-14T00:58:10;98109.13;;;30.55;21.69
14902;BME280;7542;49.078;9.194;2023-06-14T00:59:13;98109.13;;;30.55;21.67
14902;BME280;7542;49.078;9.194;2023-06-14T01:00:15;98117.56;;;30.53;21.64
14902;BME280;7542;49.078;9.194;2023-06-14T01:01:18;98114.06;;;30.53;21.92
14902;BME280;7542;49.078;9.194;2023-06-14T01:02:20;98115.16;;;30.52;21.57
14902;BME280;7542;49.078;9.194;2023-06-14T01:03:22;98119.25;;;30.49;21.82
14902;BME280;7542;49.078;9.194;2023-06-14T01:04:24;98114.47;;;30.46;21.82
14902;BME280;7542;49.078;9.194;2023-06-14T01:05:26;98113.69;;;30.46;21.94
14902;BME280;7542;49.078;9.194;2023-06-14T01:07:02;98112.13;;;30.53;21.84
14902;BME280;7542;49.078;9.194;2023-06-14T01:08:47;98113.28;;;30.61;21.68
14902;BME280;7542;49.078;9.194;2023-06-14T01:12:13;98111.50;;;30.56;21.86
14902;BME280;7542;49.078;9.194;2023-06-14T01:13:28;98110.66;;;30.47;22.11
14902;BME280;7542;49.078;9.194;2023-06-14T01:14:33;98113.31;;;30.39;22.30
14902;BME280;7542;49.078;9.194;2023-06-14T01:15:38;98109.66;;;30.35;22.16
14902;BME280;7542;49.078;9.194;2023-06-14T01:16:40;98109.47;;;30.31;22.43
14902;BME280;7542;49.078;9.194;2023-06-14T01:17:45;98115.81;;;30.26;22.69
14902;BME280;7542;49.078;9.194;2023-06-14T01:18:49;98111.50;;;30.25;22.39
14902;BME280;7542;49.078;9.194;2023-06-14T01:19:53;98117.22;;;30.24;22.13
14902;BME280;7542;49.078;9.194;2023-06-14T01:20:59;98111.03;;;30.23;22.20
14902;BME280;7542;49.078;9.194;2023-06-14T01:22:02;98107.84;;;30.21;22.52
14902;BME280;7542;49.078;9.194;2023-06-14T01:23:04;98117.06;;;30.20;22.57
14902;BME280;7542;49.078;9.194;2023-06-14T01:24:06;98117.06;;;30.20;22.46
14902;BME280;7542;49.078;9.194;2023-06-14T01:25:09;98122.00;;;30.18;22.53
14902;BME280;7542;49.078;9.194;2023-06-14T01:26:11;98118.50;;;30.18;22.47
14902;BME280;7542;49.078;9.194;2023-06-14T01:27:14;98114.16;;;30.17;22.68
14902;BME280;7542;49.078;9.194;2023-06-14T01:28:19;98113.34;;;30.16;22.36
14902;BME280;7542;49.078;9.194;2023-06-14T01:29:23;98114.47;;;30.15;22.40
14902;BME280;7542;49.078;9.194;2023-06-14T01:30:29;98115.25;;;30.16;22.85
14902;BME280;7542;49.078;9.194;2023-06-14T01:31:34;98113.97;;;30.13;22.63
14902;BME280;7542;49.078;9.194;2023-06-14T01:32:44;98115.25;;;30.16;22.77
14902;BME280;7542;49.078;9.194;2023-06-14T01:33:51;98118.28;;;30.14;22.83
14902;BME280;7542;49.078;9.194;2023-06-14T01:34:54;98125.91;;;30.12;22.56
14902;BME280;7542;49.078;9.194;2023-06-14T01:35:57;98121.13;;;30.09;22.51
14902;BME280;7542;49.078;9.194;2023-06-14T01:37:01;98125.75;;;30.09;22.54
14902;BME280;7542;49.078;9.194;2023-06-14T01:38:07;98120.34;;;30.09;23.02
14902;BME280;7542;49.078;9.194;2023-06-14T01:39:14;98118.13;;;30.11;23.18
14902;BME280;7542;49.078;9.194;2023-06-14T01:40:18;98121.72;;;30.06;23.16
14902;BME280;7542;49.078;9.194;2023-06-14T01:41:23;98123.91;;;30.04;23.29
14902;BME280;7542;49.078;9.194;2023-06-14T01:42:27;98118.50;;;30.04;23.41
14902;BME280;7542;49.078;9.194;2023-06-14T01:43:31;98122.31;;;30.03;23.14
14902;BME280;7542;49.078;9.194;2023-06-14T01:44:34;98129.94;;;30.01;23.48
14902;BME280;7542;49.078;9.194;2023-06-14T01:45:37;98128.34;;;30.00;23.04
14902;BME280;7542;49.078;9.194;2023-06-14T01:46:41;98122.47;;;29.98;22.98
14902;BME280;7542;49.078;9.194;2023-06-14T01:47:45;98121.34;;;29.99;23.51
14902;BME280;7542;49.078;9.194;2023-06-14T01:48:47;98121.97;;;29.96;23.09
14902;BME280;7542;49.078;9.194;2023-06-14T01:49:50;98129.25;;;29.95;23.36
14902;BME280;7542;49.078;9.194;2023-06-14T01:50:53;98116.84;;;29.94;23.47
14902;BME280;7542;49.078;9.194;2023-06-14T01:51:55;98129.56;;;29.94;23.56
14902;BME280;7542;49.078;9.194;2023-06-14T01:52:57;98124.78;;;29.91;23.16
14902;BME280;7542;49.078;9.194;2023-06-14T01:53:59;98121.28;;;29.90;23.18
14902;BME280;7542;49.078;9.194;2023-06-14T01:55:02;98124.28;;;29.89;23.37
14902;BME280;7542;49.078;9.194;2023-06-14T01:56:04;98123.81;;;29.87;23.71
14902;BME280;7542;49.078;9.194;2023-06-14T01:57:07;98123.00;;;29.86;23.56
14902;BME280;7542;49.078;9.194;2023-06-14T01:58:10;98131.41;;;29.85;23.65
14902;BME280;7542;49.078;9.194;2023-06-14T01:59:13;98129.81;;;29.84;23.37
14902;BME280;7542;49.078;9.194;2023-06-14T02:00:15;98119.63;;;29.81;23.46
14902;BME280;7542;49.078;9.194;2023-06-14T02:01:18;98135.34;;;29.79;23.31
14902;BME280;7542;49.078;9.194;2023-06-14T02:02:20;98131.53;;;29.80;23.15
14902;BME280;7542;49.078;9.194;2023-06-14T02:03:22;98134.84;;;29.77;23.23
14902;BME280;7542;49.078;9.194;2023-06-14T02:04:25;98131.34;;;29.76;23.52
14902;BME280;7542;49.078;9.194;2023-06-14T02:05:27;98133.53;;;29.74;23.73
14902;BME280;7542;49.078;9.194;2023-06-14T02:06:29;98130.84;;;29.74;23.64
14902;BME280;7542;49.078;9.194;2023-06-14T02:07:31;98123.84;;;29.73;23.42
14902;BME280;7542;49.078;9.194;2023-06-14T02:08:33;98131.16;;;29.72;23.55
14902;BME280;7542;49.078;9.194;2023-06-14T02:09:35;98126.38;;;29.69;23.78
14902;BME280;7542;49.078;9.194;2023-06-14T02:10:37;98130.97;;;29.69;23.82
14902;BME280;7542;49.078;9.194;2023-06-14T02:11:39;98126.38;;;29.69;23.73
14902;BME280;7542;49.078;9.194;2023-06-14T02:12:41;98132.06;;;29.68;23.40
14902;BME280;7542;49.078;9.194;2023-06-14T02:13:43;98135.09;;;29.66;23.63
14902;BME280;7542;49.078;9.194;2023-06-14T02:14:46;98130.78;;;29.65;23.97
14902;BME280;7542;49.078;9.194;2023-06-14T02:15:48;98134.28;;;29.66;23.86
14902;BME280;7542;49.078;9.194;2023-06-14T02:16:53;98134.88;;;29.63;23.80
14902;BME280;7542;49.078;9.194;2023-06-14T02:17:55;98132.19;;;29.63;23.74
14902;BME280;7542;49.078;9.194;2023-06-14T02:18:57;98133.28;;;29.62;23.32
14902;BME280;7542;49.078;9.194;2023-06-14T02:19:59;98131.69;;;29.61;23.57
14902;BME280;7542;49.078;9.194;2023-06-14T02:21:01;98135.50;;;29.60;23.67
14902;BME280;7542;49.078;9.194;2023-06-14T02:22:04;98133.91;;;29.59;23.96
14902;BME280;7542;49.078;9.194;2023-06-14T02:23:06;98139.31;;;29.59;23.85
14902;BME280;7542;49.078;9.194;2023-06-14T02:24:10;98129.91;;;29.56;24.01
14902;BME280;7542;49.078;9.194;2023-06-14T02:25:12;98136.44;;;29.55;24.06
14902;BME280;7542;49.078;9.194;2023-06-14T02:26:14;98136.44;;;29.55;23.57
14902;BME280;7542;49.078;9.194;2023-06-14T02:27:16;98137.53;;;29.54;23.98
14902;BME280;7542;49.078;9.194;2023-06-14T02:28:18;98135.94;;;29.53;23.89
14902;BME280;7542;49.078;9.194;2023-06-14T02:29:20;98138.63;;;29.53;24.04
14902;BME280;7542;49.078;9.194;2023-06-14T02:30:23;98138.91;;;29.52;23.61
14902;BME280;7542;49.078;9.194;2023-06-14T02:31:25;98136.53;;;29.50;24.05
14902;BME280;7542;49.078;9.194;2023-06-14T02:32:27;98134.94;;;29.49;23.73
14902;BME280;7542;49.078;9.194;2023-06-14T02:33:29;98134.94;;;29.49;23.90
14902;BME280;7542;49.078;9.194;2023-06-14T02:34:32;98140.63;;;29.48;23.55
14902;BME280;7542;49.078;9.194;2023-06-14T02:35:34;98135.50;;;29.46;23.87
14902;BME280;7542;49.078;9.194;2023-06-14T02:36:36;98136.63;;;29.45;23.76
14902;BME280;7542;49.078;9.194;2023-06-14T02:37:43;98134.72;;;29.45;23.93
14902;BME280;7542;49.078;9.194;2023-06-14T02:38:45;98133.44;;;29.43;24.21
14902;BME280;7542;49.078;9.194;2023-06-14T02:39:48;98136.13;;;29.43;23.97
14902;BME280;7542;49.078;9.194;2023-06-14T02:40:50;98140.72;;;29.42;23.91
14902;BME280;7542;49.078;9.194;2023-06-14T02:41:52;98132.91;;;29.41;24.23
14902;BME280;7542;49.078;9.194;2023-06-14T02:42:54;98135.13;;;29.39;24.27
14902;BME280;7542;49.078;9.194;2023-06-14T02:43:56;98141.31;;;29.39;23.84
14902;BME280;7542;49.078;9.194;2023-06-14T02:45:00;98134.31;;;29.38;24.22
14902;BME280;7542;49.078;9.194;2023-06-14T02:46:04;98133.53;;;29.38;24.12
14902;BME280;7542;49.078;9.194;2023-06-14T02:47:06;98135.44;;;29.37;23.97
14902;BME280;7542;49.078;9.194;2023-06-14T02:48:08;98130.34;;;29.36;24.29
14902;BME280;7542;49.078;9.194;2023-06-14T02:49:12;98143.34;;;29.34;24.08
14902;BME280;7542;49.078;9.194;2023-06-14T02:50:14;98139.84;;;29.33;23.79
14902;BME280;7542;49.078;9.194;2023-06-14T02:51:16;98130.94;;;29.33;24.02
14902;BME280;7542;49.078;9.194;2023-06-14T02:52:18;98139.84;;;29.33;23.87
14902;BME280;7542;49.078;9.194;2023-06-14T02:53:20;98134.75;;;29.32;24.39
14902;BME280;7542;49.078;9.194;2023-06-14T02:54:22;98138.56;;;29.31;24.02
14902;BME280;7542;49.078;9.194;2023-06-14T02:55:24;98136.94;;;29.30;23.81
14902;BME280;7542;49.078;9.194;2023-06-14T02:56:29;98136.44;;;29.28;24.32
14902;BME280;7542;49.078;9.194;2023-06-14T02:57:31;98133.44;;;29.29;24.27
14902;BME280;7542;49.078;9.194;2023-06-14T02:58:33;98135.63;;;29.27;24.23
14902;BME280;7542;49.078;9.194;2023-06-14T02:59:35;98134.03;;;29.26;24.09
14902;BME280;7542;49.078;9.194;2023-06-14T03:00:37;98132.75;;;29.24;24.30
14902;BME280;7542;49.078;9.194;2023-06-14T03:01:40;98133.84;;;29.23;24.08
14902;BME280;7542;49.078;9.194;2023-06-14T03:02:43;98146.25;;;29.24;24.37
14902;BME280;7542;49.078;9.194;2023-06-14T03:03:45;98140.06;;;29.23;24.30
14902;BME280;7542;49.078;9.194;2023-06-14T03:04:47;98141.97;;;29.23;24.00
14902;BME280;7542;49.078;9.194;2023-06-14T03:05:50;98137.13;;;29.20;24.35
14902;BME280;7542;49.078;9.194;2023-06-14T03:06:53;98137.97;;;29.20;24.29
14902;BME280;7542;49.078;9.194;2023-06-14T03:07:55;98139.03;;;29.19;24.29
14902;BME280;7542;49.078;9.194;2023-06-14T03:08:58;98137.75;;;29.16;24.13
14902;BME280;7542;49.078;9.194;2023-06-14T03:10:08;98141.75;;;29.19;24.50
14902;BME280;7542;49.078;9.194;2023-06-14T03:11:11;98140.47;;;29.16;23.80
14902;BME280;7542;49.078;9.194;2023-06-14T03:12:13;98137.25;;;29.14;24.38
14902;BME280;7542;49.078;9.194;2023-06-14T03:13:16;98145.38;;;29.14;24.55
14902;BME280;7542;49.078;9.194;2023-06-14T03:14:18;98143.47;;;29.15;24.12
14902;BME280;7542;49.078;9.194;2023-06-14T03:15:20;98139.16;;;29.14;24.47
14902;BME280;7542;49.078;9.194;2023-06-14T03:16:25;98142.16;;;29.12;24.11
14902;BME280;7542;49.078;9.194;2023-06-14T03:17:30;98138.97;;;29.10;24.39
14902;BME280;7542;49.078;9.194;2023-06-14T03:18:35;98138.97;;;29.10;24.73
14902;BME280;7542;49.078;9.194;2023-06-14T03:19:38;98138.97;;;29.10;24.40
14902;BME280;7542;49.078;9.194;2023-06-14T03:20:40;98147.34;;;29.09;24.70
14902;BME280;7542;49.078;9.194;2023-06-14T03:21:42;98139.56;;;29.07;24.78
14902;BME280;7542;49.078;9.194;2023-06-14T03:22:46;98139.88;;;29.06;24.34
14902;BME280;7542;49.078;9.194;2023-06-14T03:23:49;98140.66;;;29.06;24.29
14902;BME280;7542;49.078;9.194;2023-06-14T03:24:52;98144.47;;;29.05;24.37
14902;BME280;7542;49.078;9.194;2023-06-14T03:25:55;98143.66;;;29.05;24.76
14902;BME280;7542;49.078;9.194;2023-06-14T03:26:58;98143.16;;;29.03;24.48
14902;BME280;7542;49.078;9.194;2023-06-14T03:28:00;98142.38;;;29.02;24.41
14902;BME280;7542;49.078;9.194;2023-06-14T03:29:02;98146.97;;;29.02;24.69
14902;BME280;7542;49.078;9.194;2023-06-14T03:30:04;98142.97;;;28.99;24.61
14902;BME280;7542;49.078;9.194;2023-06-14T03:31:07;98149.50;;;28.98;24.40
14902;BME280;7542;49.078;9.194;2023-06-14T03:32:10;98148.38;;;28.99;24.76
14902;BME280;7542;49.078;9.194;2023-06-14T03:33:12;98147.84;;;28.97;24.68
14902;BME280;7542;49.078;9.194;2023-06-14T03:34:14;98152.47;;;28.97;24.75
14902;BME280;7542;49.078;9.194;2023-06-14T03:35:17;98157.38;;;28.95;24.38
14902;BME280;7542;49.078;9.194;2023-06-14T03:36:19;98151.97;;;28.95;24.60
14902;BME280;7542;49.078;9.194;2023-06-14T03:37:21;98153.06;;;28.94;24.50
14902;BME280;7542;49.078;9.194;2023-06-14T03:38:23;98158.47;;;28.94;24.66
14902;BME280;7542;49.078;9.194;2023-06-14T03:39:25;98156.88;;;28.93;24.79
14902;BME280;7542;49.078;9.194;2023-06-14T03:40:27;98159.56;;;28.93;24.69
14902;BME280;7542;49.078;9.194;2023-06-14T03:41:29;98158.78;;;28.92;24.55
14902;BME280;7542;49.078;9.194;2023-06-14T03:42:31;98155.09;;;28.88;25.10
14902;BME280;7542;49.078;9.194;2023-06-14T03:43:33;98164.78;;;28.89;24.95
14902;BME280;7542;49.078;9.194;2023-06-14T03:44:36;98163.19;;;28.88;24.97
14902;BME280;7542;49.078;9.194;2023-06-14T03:45:38;98165.06;;;28.87;24.58
14902;BME280;7542;49.078;9.194;2023-06-14T03:46:40;98164.22;;;28.87;24.75
14902;BME280;7542;49.078;9.194;2023-06-14T03:47:42;98158.81;;;28.87;24.61
14902;BME280;7542;49.078;9.194;2023-06-14T03:48:44;98168.03;;;28.86;24.63
14902;BME280;7542;49.078;9.194;2023-06-14T03:49:46;98160.22;;;28.84;24.67
14902;BME280;7542;49.078;9.194;2023-06-14T03:50:48;98164.81;;;28.84;24.68
14902;BME280;7542;49.078;9.194;2023-06-14T03:51:50;98168.63;;;28.83;24.94
14902;BME280;7542;49.078;9.194;2023-06-14T03:52:53;98178.31;;;28.84;24.92
14902;BME280;7542;49.078;9.194;2023-06-14T03:53:55;98170.53;;;28.82;24.75
14902;BME280;7542;49.078;9.194;2023-06-14T03:55:17;98172.91;;;28.84;24.73
14902;BME280;7542;49.078;9.194;2023-06-14T03:56:22;98173.53;;;28.81;25.13
14902;BME280;7542;49.078;9.194;2023-06-14T03:57:24;98176.53;;;28.79;24.91
14902;BME280;7542;49.078;9.194;2023-06-14T03:58:26;98180.31;;;28.78;24.80
14902;BME280;7542;49.078;9.194;2023-06-14T03:59:28;98182.22;;;28.78;25.03
14902;BME280;7542;49.078;9.194;2023-06-14T04:00:30;98176.31;;;28.76;25.02
14902;BME280;7542;49.078;9.194;2023-06-14T04:01:32;98178.50;;;28.74;24.97
14902;BME280;7542;49.078;9.194;2023-06-14T04:02:35;98175.81;;;28.74;25.28
14902;BME280;7542;49.078;9.194;2023-06-14T04:03:38;98181.50;;;28.72;25.21
14902;BME280;7542;49.078;9.194;2023-06-14T04:04:42;98189.59;;;28.72;25.15
14902;BME280;7542;49.078;9.194;2023-06-14T04:05:47;98184.50;;;28.71;25.06
14902;BME280;7542;49.078;9.194;2023-06-14T04:06:51;98186.09;;;28.72;25.08
14902;BME280;7542;49.078;9.194;2023-06-14T04:07:53;98184.81;;;28.69;25.12
14902;BME280;7542;49.078;9.194;2023-06-14T04:08:59;98187.50;;;28.69;25.29
14902;BME280;7542;49.078;9.194;2023-06-14T04:10:07;98186.72;;;28.69;25.40
14902;BME280;7542;49.078;9.194;2023-06-14T04:11:09;98182.97;;;28.65;25.00
14902;BME280;7542;49.078;9.194;2023-06-14T04:12:12;98181.63;;;28.67;25.22
14902;BME280;7542;49.078;9.194;2023-06-14T04:13:14;98189.19;;;28.65;25.36
14902;BME280;7542;49.078;9.194;2023-06-14T04:14:16;98184.88;;;28.64;25.33
14902;BME280;7542;49.078;9.194;2023-06-14T04:15:18;98188.69;;;28.63;25.18
14902;BME280;7542;49.078;9.194;2023-06-14T04:16:23;98189.47;;;28.64;25.24
14902;BME280;7542;49.078;9.194;2023-06-14T04:17:25;98187.09;;;28.62;25.01
14902;BME280;7542;49.078;9.194;2023-06-14T04:18:27;98188.69;;;28.63;25.31
14902;BME280;7542;49.078;9.194;2023-06-14T04:19:29;98189.28;;;28.60;25.28
14902;BME280;7542;49.078;9.194;2023-06-14T04:20:31;98195.47;;;28.61;25.30
14902;BME280;7542;49.078;9.194;2023-06-14T04:21:33;98193.09;;;28.59;25.06
14902;BME280;7542;49.078;9.194;2023-06-14T04:22:36;98195.78;;;28.59;25.25
14902;BME280;7542;49.078;9.194;2023-06-14T04:23:38;98192.28;;;28.58;25.35
14902;BME280;7542;49.078;9.194;2023-06-14T04:24:40;98194.19;;;28.58;25.25
14902;BME280;7542;49.078;9.194;2023-06-14T04:25:44;98196.09;;;28.57;25.12
14902;BME280;7542;49.078;9.194;2023-06-14T04:26:48;98199.88;;;28.56;25.28
14902;BME280;7542;49.078;9.194;2023-06-14T04:27:51;98200.69;;;28.57;25.12
14902;BME280;7542;49.078;9.194;2023-06-14T04:28:54;98199.34;;;28.54;25.14
14902;BME280;7542;49.078;9.194;2023-06-14T04:29:58;98205.56;;;28.55;25.28
14902;BME280;7542;49.078;9.194;2023-06-14T04:31:01;98203.66;;;28.55;25.24
14902;BME280;7542;49.078;9.194;2023-06-14T04:32:04;98206.38;;;28.55;25.15
14902;BME280;7542;49.078;9.194;2023-06-14T04:33:07;98203.66;;;28.55;24.92
14902;BME280;7542;49.078;9.194;2023-06-14T04:34:10;98212.84;;;28.54;25.20
14902;BME280;7542;49.078;9.194;2023-06-14T04:35:18;98206.63;;;28.54;25.22
14902;BME280;7542;49.078;9.194;2023-06-14T04:36:20;98207.75;;;28.53;25.23
14902;BME280;7542;49.078;9.194;2023-06-14T04:37:23;98216.13;;;28.51;25.26
14902;BME280;7542;49.078;9.194;2023-06-14T04:38:25;98209.13;;;28.50;25.25
14902;BME280;7542;49.078;9.194;2023-06-14T04:39:28;98213.72;;;28.50;25.30
14902;BME280;7542;49.078;9.194;2023-06-14T04:40:32;98217.53;;;28.49;25.14
14902;BME280;7542;49.078;9.194;2023-06-14T04:41:35;98213.22;;;28.48;25.38
14902;BME280;7542;49.078;9.194;2023-06-14T04:42:37;98214.84;;;28.49;25.33
14902;BME280;7542;49.078;9.194;2023-06-14T04:43:39;98214.84;;;28.49;25.40
14902;BME280;7542;49.078;9.194;2023-06-14T04:44:43;98222.13;;;28.48;25.29
14902;BME280;7542;49.078;9.194;2023-06-14T04:45:45;98223.22;;;28.47;25.29
14902;BME280;7542;49.078;9.194;2023-06-14T04:46:48;98227.81;;;28.47;25.41
14902;BME280;7542;49.078;9.194;2023-06-14T04:47:50;98223.22;;;28.47;25.31
14902;BME280;7542;49.078;9.194;2023-06-14T04:48:54;98226.22;;;28.46;25.25
14902;BME280;7542;49.078;9.194;2023-06-14T04:49:59;98227.81;;;28.47;25.39
14902;BME280;7542;49.078;9.194;2023-06-14T04:51:02;98231.91;;;28.44;25.29
14902;BME280;7542;49.078;9.194;2023-06-14T04:52:06;98229.22;;;28.44;25.30
14902;BME280;7542;49.078;9.194;2023-06-14T04:53:08;98231.09;;;28.44;25.51
14902;BME280;7542;49.078;9.194;2023-06-14T04:54:11;98232.97;;;28.43;25.62
14902;BME280;7542;49.078;9.194;2023-06-14T04:55:15;98241.06;;;28.43;25.30
14902;BME280;7542;49.078;9.194;2023-06-14T04:56:18;98239.47;;;28.42;25.52
14902;BME280;7542;49.078;9.194;2023-06-14T04:57:20;98234.06;;;28.42;25.41
14902;BME280;7542;49.078;9.194;2023-06-14T04:58:24;98238.38;;;28.43;25.57
14902;BME280;7542;49.078;9.194;2023-06-14T04:59:26;98241.38;;;28.42;25.38
14902;BME280;7542;49.078;9.194;2023-06-14T05:00:28;98244.88;;;28.42;25.36
14902;BME280;7542;49.078;9.194;2023-06-14T05:01:32;98238.69;;;28.42;25.42
14902;BME280;7542;49.078;9.194;2023-06-14T05:02:35;98251.06;;;28.43;25.62
14902;BME280;7542;49.078;9.194;2023-06-14T05:03:37;98247.56;;;28.42;25.60
14902;BME280;7542;49.078;9.194;2023-06-14T05:04:39;98247.88;;;28.41;25.60
14902;BME280;7542;49.078;9.194;2023-06-14T05:05:42;98241.38;;;28.42;25.63
14902;BME280;7542;49.078;9.194;2023-06-14T05:06:44;98244.38;;;28.40;25.78
14902;BME280;7542;49.078;9.194;2023-06-14T05:07:46;98245.16;;;28.41;25.41
14902;BME280;7542;49.078;9.194;2023-06-14T05:08:48;98245.97;;;28.41;25.54
14902;BME280;7542;49.078;9.194;2023-06-14T05:09:51;98248.66;;;28.41;25.56
14902;BME280;7542;49.078;9.194;2023-06-14T05:10:53;98237.38;;;28.39;25.46
14902;BME280;7542;49.078;9.194;2023-06-14T05:11:55;98249.75;;;28.40;25.51
14902;BME280;7542;49.078;9.194;2023-06-14T05:12:57;98244.38;;;28.40;25.97
14902;BME280;7542;49.078;9.194;2023-06-14T05:13:59;98242.47;;;28.41;25.64
14902;BME280;7542;49.078;9.194;2023-06-14T05:15:02;98247.06;;;28.40;25.56
14902;BME280;7542;49.078;9.194;2023-06-14T05:16:04;98247.88;;;28.41;25.63
14902;BME280;7542;49.078;9.194;2023-06-14T05:17:06;98241.38;;;28.42;25.81
14902;BME280;7542;49.078;9.194;2023-06-14T05:18:09;98247.56;;;28.42;25.63
14902;BME280;7542;49.078;9.194;2023-06-14T05:19:11;98248.66;;;28.41;25.46
14902;BME280;7542;49.078;9.194;2023-06-14T05:20:13;98249.97;;;28.44;25.73
14902;BME280;7542;49.078;9.194;2023-06-14T05:21:15;98245.41;;;28.44;25.56
14902;BME280;7542;49.078;9.194;2023-06-14T05:22:19;98246.69;;;28.47;25.53
14902;BME280;7542;49.078;9.194;2023-06-14T05:23:22;98239.41;;;28.47;25.57
14902;BME280;7542;49.078;9.194;2023-06-14T05:24:24;98244.81;;;28.47;25.54
14902;BME280;7542;49.078;9.194;2023-06-14T05:25:26;98249.59;;;28.50;25.59
14902;BME280;7542;49.078;9.194;2023-06-14T05:26:29;98249.59;;;28.50;25.70
14902;BME280;7542;49.078;9.194;2023-06-14T05:27:32;98246.91;;;28.50;25.49
14902;BME280;7542;49.078;9.194;2023-06-14T05:28:33;98251.69;;;28.53;25.51
14902;BME280;7542;49.078;9.194;2023-06-14T05:29:36;98249.53;;;28.55;25.70
14902;BME280;7542;49.078;9.194;2023-06-14T05:30:39;98249.53;;;28.55;25.46
14902;BME280;7542;49.078;9.194;2023-06-14T05:31:41;98250.81;;;28.58;25.65
14902;BME280;7542;49.078;9.194;2023-06-14T05:32:43;98251.31;;;28.60;25.67
14902;BME280;7542;49.078;9.194;2023-06-14T05:33:45;98255.31;;;28.63;25.64
14902;BME280;7542;49.078;9.194;2023-06-14T05:34:47;98254.22;;;28.64;25.48
14902;BME280;7542;49.078;9.194;2023-06-14T05:35:49;98253.13;;;28.65;25.62
14902;BME280;7542;49.078;9.194;2023-06-14T05:36:51;98257.78;;;28.45;26.12
14902;BME280;7542;49.078;9.194;2023-06-14T05:37:53;98255.44;;;28.57;25.83
14902;BME280;7542;49.078;9.194;2023-06-14T05:38:55;98258.81;;;28.63;25.83
14902;BME280;7542;49.078;9.194;2023-06-14T05:39:59;98262.25;;;28.69;25.76
14902;BME280;7542;49.078;9.194;2023-06-14T05:41:01;98260.06;;;28.71;26.13